CheckWX is a tool to help pilots better visualize weather data.  It is not intended as a substitute for an official pre-flight weather briefing.

07:11:21 UTC

KMTN METAR
Martin State Airport
Baltimore, Maryland, USA
Current

9 mins ago

KMTN 210702Z AUTO 00000KT 10SM CLR 13/13 A3025 RMK AO2
Observed
Sep-21 @ 07:02 UTC
Visibility
10 SM
Flight Rules
VFR
Cloud Levels
  • Clear skies
Temperature
13°C / 55°F
Dewpoint
13°C / 55°F
Humidity
100%
Altimeter
30.25" Hg
Pressure
1024.42 hPa
Previous

29 mins ago

KMTN 210642Z AUTO 00000KT 10SM CLR 14/14 A3025 RMK AO2
Observed
Sep-21 @ 06:42 UTC
Visibility
10 SM
Flight Rules
VFR
Cloud Levels
  • Clear skies
Temperature
14°C / 57°F
Dewpoint
14°C / 57°F
Humidity
100%
Altimeter
30.25" Hg
Pressure
1024.42 hPa
Previous

49 mins ago

KMTN 210622Z AUTO 00000KT 10SM CLR 15/15 A3025 RMK AO2
Observed
Sep-21 @ 06:22 UTC
Visibility
10 SM
Flight Rules
VFR
Cloud Levels
  • Clear skies
Temperature
15°C / 59°F
Dewpoint
15°C / 59°F
Humidity
100%
Altimeter
30.25" Hg
Pressure
1024.42 hPa